Private Wetterstation Wechselburg
Wetterdaten: Woche 20.06.11 - 26.06.11 (KW25)
Datum Zeit Temp. +2m Bodentemp. Temp.+5cm Temp. Wind Windchill X Diff Temp. Feuchte +2m Feuchte +5cm Sonnenschein Luftdruck Regen Wind Richtung Sonnenschein UV Taupunkt Windchill Windben
20.06.2011 00:00 13,2 C 19,1 C 11,9 C 12,6 C 11,1 C 0,0 C 84 % 94 % 0 % 1012,0 hPa 0,0 l/m 7,9 km/h (2 Bft) S 0,00 h 0,0 UV-I 10,5 C 11,1 C 11,4 km/h (2 Bft)
20.06.2011 01:00 13,2 C 18,9 C 11,9 C 12,7 C 11,5 C 0,0 C 83 % 94 % 0 % 1012,2 hPa 0,0 l/m 7,6 km/h (2 Bft) S 0,00 h 0,0 UV-I 10,4 C 11,5 C 9,5 km/h (2 Bft)
20.06.2011 02:00 13,2 C 18,7 C 11,9 C 12,7 C 11,7 C 0,0 C 83 % 93 % 0 % 1012,7 hPa 0,7 l/m 6,8 km/h (2 Bft) SW 0,00 h 0,0 UV-I 10,4 C 11,7 C 8,8 km/h (2 Bft)
20.06.2011 03:00 12,9 C 18,8 C 11,7 C 12,4 C 11,2 C 0,0 C 85 % 94 % 0 % 1012,8 hPa 0,7 l/m 5,9 km/h (2 Bft) SW 0,00 h 0,0 UV-I 10,4 C 11,2 C 8,7 km/h (2 Bft)
20.06.2011 04:00 12,8 C 18,7 C 11,5 C 12,4 C 11,5 C 0,0 C 85 % 94 % 0 % 1013,0 hPa 0,0 l/m 5,9 km/h (2 Bft) W-SW 0,00 h 0,0 UV-I 10,3 C 11,5 C 7,7 km/h (2 Bft)
20.06.2011 05:00 12,8 C 18,4 C 11,5 C 12,5 C 11,7 C 0,0 C 83 % 94 % 0 % 1013,4 hPa 0,0 l/m 6,3 km/h (2 Bft) SW 0,00 h 0,0 UV-I 10,0 C 11,7 C 7,4 km/h (2 Bft)
20.06.2011 06:00 12,9 C 18,3 C 11,7 C 12,6 C 12,1 C 0,0 C 82 % 94 % 0 % 1014,0 hPa 0,0 l/m 7,0 km/h (2 Bft) S 0,00 h 0,0 UV-I 9,8 C 12,1 C 7,9 km/h (2 Bft)
20.06.2011 07:00 13,0 C 18,2 C 11,8 C 12,7 C 11,9 C 0,0 C 80 % 92 % 0 % 1014,2 hPa 0,0 l/m 8,7 km/h (2 Bft) S 0,00 h 0,1 UV-I 9,6 C 11,9 C 12,3 km/h (3 Bft)
20.06.2011 08:00 13,9 C 18,1 C 12,6 C 14,4 C 14,3 C 0,6 C 76 % 91 % 15 % 1014,5 hPa 0,0 l/m 8,4 km/h (2 Bft) SW 0,00 h 0,3 UV-I 9,8 C 14,3 C 12,9 km/h (3 Bft)
20.06.2011 09:00 14,9 C 18,0 C 13,9 C 17,5 C 17,5 C 2,6 C 73 % 82 % 63 % 1014,6 hPa 0,0 l/m 8,8 km/h (2 Bft) S 0,33 h 0,9 UV-I 10,0 C 17,5 C 11,8 km/h (2 Bft)
20.06.2011 10:00 15,6 C 17,9 C 14,8 C 17,9 C 17,9 C 2,3 C 69 % 73 % 60 % 1014,6 hPa 0,0 l/m 8,7 km/h (2 Bft) S 0,17 h 1,4 UV-I 9,9 C 17,9 C 11,6 km/h (2 Bft)
20.06.2011 11:00 16,9 C 18,0 C 16,1 C 20,2 C 20,2 C 3,2 C 63 % 68 % 85 % 1014,4 hPa 0,0 l/m 9,3 km/h (2 Bft) S 0,58 h 2,5 UV-I 9,9 C 20,2 C 14,3 km/h (3 Bft)
20.06.2011 12:00 17,9 C 18,0 C 17,0 C 20,7 C 20,7 C 2,8 C 59 % 64 % 75 % 1014,3 hPa 0,0 l/m 8,8 km/h (2 Bft) SW 0,33 h 3,0 UV-I 9,9 C 20,7 C 11,7 km/h (2 Bft)
20.06.2011 13:00 18,8 C 18,1 C 18,2 C 21,3 C 21,3 C 2,5 C 55 % 59 % 66 % 1014,1 hPa 0,0 l/m 7,9 km/h (2 Bft) S 0,00 h 2,7 UV-I 9,6 C 21,3 C 9,2 km/h (2 Bft)
20.06.2011 14:00 19,4 C 18,2 C 19,4 C 21,9 C 21,9 C 2,5 C 53 % 55 % 66 % 1013,8 hPa 0,0 l/m 6,9 km/h (2 Bft) SW 0,13 h 2,2 UV-I 9,5 C 21,9 C 8,0 km/h (2 Bft)
20.06.2011 15:00 20,7 C 18,3 C 22,2 C 23,9 C 23,9 C 3,2 C 48 % 48 % 83 % 1013,3 hPa 0,0 l/m 5,7 km/h (1 Bft) S 0,50 h 2,0 UV-I 9,4 C 23,9 C 7,3 km/h (2 Bft)
20.06.2011 16:00 20,3 C 18,6 C 20,1 C 22,3 C 22,3 C 2,0 C 49 % 51 % 52 % 1012,9 hPa 0,0 l/m 5,2 km/h (1 Bft) S 0,00 h 1,0 UV-I 9,3 C 22,3 C 7,6 km/h (2 Bft)
20.06.2011 17:00 19,1 C 18,9 C 18,3 C 19,0 C 18,7 C 0,1 C 55 % 58 % 3 % 1013,3 hPa 0,0 l/m 8,5 km/h (2 Bft) SW 0,00 h 0,3 UV-I 9,8 C 18,7 C 12,0 km/h (2 Bft)
20.06.2011 18:00 17,7 C 19,0 C 16,7 C 17,5 C 17,1 C 0,0 C 64 % 69 % 0 % 1013,6 hPa 0,0 l/m 5,4 km/h (1 Bft) S 0,00 h 0,2 UV-I 10,8 C 17,1 C 8,2 km/h (2 Bft)
20.06.2011 19:00 17,1 C 19,2 C 16,1 C 16,8 C 16,4 C 0,0 C 68 % 73 % 0 % 1013,6 hPa 0,0 l/m 4,8 km/h (1 Bft) S-SW 0,00 h 0,1 UV-I 11,0 C 16,4 C 5,5 km/h (1 Bft)
20.06.2011 20:00 16,6 C 19,2 C 15,6 C 16,2 C 15,4 C 0,0 C 72 % 77 % 0 % 1013,7 hPa 0,0 l/m 3,0 km/h (1 Bft) S-SO 0,00 h 0,0 UV-I 11,5 C 15,4 C 3,4 km/h (1 Bft)
20.06.2011 21:00 16,1 C 19,2 C 15,1 C 15,5 C 14,6 C 0,0 C 75 % 80 % 0 % 1013,8 hPa 0,0 l/m 1,3 km/h (1 Bft) SO 0,00 h 0,0 UV-I 11,6 C 14,6 C 2,3 km/h (1 Bft)
20.06.2011 22:00 15,4 C 19,3 C 14,3 C 14,5 C 12,8 C 0,0 C 77 % 83 % 0 % 1013,9 hPa 0,0 l/m 0,6 km/h (0 Bft) N 0,00 h 0,0 UV-I 11,4 C 12,8 C 0,8 km/h (0 Bft)
20.06.2011 23:00 14,5 C 19,3 C 13,3 C 13,5 C 11,4 C 0,0 C 80 % 85 % 0 % 1014,0 hPa 0,0 l/m 0,1 km/h (0 Bft) N 0,00 h 0,0 UV-I 11,2 C 11,4 C 0,0 km/h (0 Bft)
21.06.2011 00:00 13,7 C 19,4 C 12,6 C 12,9 C 11,2 C 0,0 C 83 % 88 % 0 % 1013,8 hPa 0,0 l/m 0,1 km/h (0 Bft) N 0,00 h 0,0 UV-I 10,9 C 11,2 C 0,1 km/h (0 Bft)
21.06.2011 01:00 13,2 C 19,3 C 12,2 C 12,5 C 11,2 C 0,0 C 85 % 89 % 0 % 1013,7 hPa 0,0 l/m 0,0 km/h (0 Bft) N 0,00 h 0,0 UV-I 10,7 C 11,2 C 0,0 km/h (0 Bft)
21.06.2011 02:00 13,6 C 19,2 C 12,8 C 13,1 C 12,2 C 0,0 C 87 % 90 % 0 % 1013,5 hPa 0,0 l/m 0,0 km/h (0 Bft) N 0,00 h 0,0 UV-I 11,4 C 12,2 C 0,0 km/h (0 Bft)
21.06.2011 03:00 14,1 C 19,1 C 13,4 C 13,7 C 12,9 C 0,0 C 86 % 90 % 0 % 1013,1 hPa 0,0 l/m 0,2 km/h (0 Bft) N 0,00 h 0,0 UV-I 11,8 C 12,9 C 1,0 km/h (0 Bft)
21.06.2011 04:00 14,3 C 19,3 C 13,8 C 14,1 C 13,5 C 0,0 C 89 % 91 % 0 % 1012,8 hPa 0,7 l/m 0,5 km/h (0 Bft) SO 0,00 h 0,0 UV-I 12,5 C 13,5 C 0,9 km/h (0 Bft)
21.06.2011 05:00 14,6 C 19,3 C 14,1 C 14,4 C 13,9 C 0,0 C 90 % 92 % 0 % 1012,6 hPa 0,0 l/m 0,1 km/h (0 Bft) N 0,00 h 0,0 UV-I 12,9 C 13,9 C 0,2 km/h (0 Bft)
21.06.2011 06:00 15,0 C 19,1 C 14,5 C 15,0 C 14,8 C 0,0 C 90 % 92 % 1 % 1012,5 hPa 0,0 l/m 0,2 km/h (0 Bft) N 0,00 h 0,0 UV-I 13,3 C 14,8 C 0,5 km/h (0 Bft)
21.06.2011 07:00 15,7 C 19,0 C 15,2 C 16,7 C 16,7 C 1,0 C 89 % 92 % 25 % 1012,7 hPa 0,0 l/m 0,2 km/h (0 Bft) N 0,00 h 0,1 UV-I 13,9 C 16,7 C 0,1 km/h (0 Bft)
21.06.2011 08:00 15,9 C 19,1 C 15,6 C 16,2 C 16,2 C 0,4 C 89 % 92 % 10 % 1013,0 hPa 0,7 l/m 1,3 km/h (1 Bft) S 0,00 h 0,2 UV-I 14,0 C 16,2 C 3,5 km/h (1 Bft)
21.06.2011 09:00 16,3 C 19,1 C 15,8 C 17,5 C 17,5 C 1,2 C 89 % 94 % 32 % 1012,9 hPa 0,0 l/m 1,6 km/h (1 Bft) S 0,00 h 0,4 UV-I 14,4 C 17,5 C 3,8 km/h (1 Bft)
21.06.2011 10:00 17,1 C 19,0 C 16,5 C 18,8 C 18,8 C 1,7 C 88 % 94 % 45 % 1013,0 hPa 0,0 l/m 1,5 km/h (1 Bft) S-SO 0,00 h 0,8 UV-I 15,0 C 18,8 C 2,1 km/h (1 Bft)
21.06.2011 11:00 18,2 C 19,1 C 17,5 C 20,7 C 20,7 C 2,5 C 87 % 94 % 67 % 1013,0 hPa 0,0 l/m 3,0 km/h (1 Bft) S 0,08 h 1,3 UV-I 16,0 C 20,7 C 5,2 km/h (1 Bft)
21.06.2011 12:00 19,0 C 19,0 C 18,4 C 20,9 C 20,9 C 1,9 C 84 % 92 % 51 % 1013,3 hPa 0,0 l/m 6,8 km/h (2 Bft) S 0,00 h 1,4 UV-I 16,3 C 20,9 C 8,8 km/h (2 Bft)
21.06.2011 13:00 19,7 C 19,0 C 19,4 C 22,3 C 22,3 C 2,6 C 80 % 83 % 69 % 1013,3 hPa 0,0 l/m 6,4 km/h (2 Bft) W-SW 0,00 h 1,7 UV-I 16,0 C 22,3 C 8,0 km/h (2 Bft)
21.06.2011 14:00 19,3 C 19,3 C 18,8 C 20,2 C 20,2 C 0,9 C 82 % 85 % 24 % 1013,6 hPa 0,7 l/m 3,9 km/h (1 Bft) S 0,00 h 0,9 UV-I 16,1 C 20,2 C 5,8 km/h (2 Bft)
21.06.2011 15:00 20,0 C 19,3 C 19,9 C 22,3 C 22,3 C 2,3 C 80 % 82 % 61 % 1013,5 hPa 0,0 l/m 4,8 km/h (1 Bft) SW 0,08 h 1,4 UV-I 16,4 C 22,3 C 7,1 km/h (2 Bft)
21.06.2011 16:00 22,0 C 19,4 C 22,7 C 25,5 C 25,5 C 3,5 C 74 % 73 % 91 % 1013,3 hPa 0,0 l/m 4,4 km/h (1 Bft) S-SO 0,67 h 1,3 UV-I 17,0 C 25,5 C 5,9 km/h (2 Bft)
21.06.2011 17:00 22,6 C 19,5 C 22,7 C 24,9 C 24,9 C 2,3 C 72 % 74 % 59 % 1012,7 hPa 0,0 l/m 3,7 km/h (1 Bft) SW 0,33 h 0,6 UV-I 17,4 C 24,9 C 5,5 km/h (1 Bft)
21.06.2011 18:00 21,8 C 19,6 C 21,6 C 22,6 C 22,6 C 0,8 C 73 % 75 % 20 % 1012,3 hPa 0,0 l/m 3,9 km/h (1 Bft) S 0,00 h 0,1 UV-I 16,7 C 22,6 C 5,5 km/h (1 Bft)
21.06.2011 19:00 23,1 C 19,7 C 22,1 C 24,5 C 24,5 C 1,4 C 66 % 70 % 36 % 1012,5 hPa 0,0 l/m 7,1 km/h (2 Bft) S 0,00 h 0,1 UV-I 16,4 C 24,5 C 8,6 km/h (2 Bft)
21.06.2011 20:00 22,4 C 19,8 C 21,8 C 22,4 C 21,8 C 0,2 C 68 % 71 % 6 % 1012,5 hPa 0,0 l/m 0,8 km/h (0 Bft) S 0,00 h 0,0 UV-I 16,3 C 21,8 C 0,6 km/h (0 Bft)
21.06.2011 21:00 21,0 C 19,9 C 19,6 C 20,3 C 18,8 C 0,0 C 73 % 79 % 0 % 1012,9 hPa 0,0 l/m 0,8 km/h (0 Bft) S-SW 0,00 h 0,0 UV-I 16,0 C 18,8 C 1,3 km/h (1 Bft)
21.06.2011 22:00 19,8 C 20,1 C 18,5 C 19,2 C 17,9 C 0,0 C 77 % 82 % 0 % 1013,6 hPa 0,0 l/m 0,1 km/h (0 Bft) N 0,00 h 0,0 UV-I 15,6 C 17,9 C 0,3 km/h (0 Bft)
21.06.2011 23:00 18,5 C 20,2 C 17,2 C 17,7 C 16,3 C 0,0 C 81 % 86 % 0 % 1013,7 hPa 0,0 l/m 0,0 km/h (0 Bft) N 0,00 h 0,0 UV-I 15,1 C 16,3 C 0,0 km/h (0 Bft)
22.06.2011 00:00 17,5 C 20,3 C 16,3 C 16,8 C 15,3 C 0,0 C 83 % 88 % 0 % 1014,0 hPa 0,0 l/m 0,0 km/h (0 Bft) N 0,00 h 0,0 UV-I 14,7 C 15,3 C 0,0 km/h (0 Bft)
22.06.2011 01:00 16,8 C 20,2 C 15,5 C 16,0 C 14,5 C 0,0 C 85 % 90 % 0 % 1013,8 hPa 0,0 l/m 0,0 km/h (0 Bft) N 0,00 h 0,0 UV-I 14,2 C 14,5 C 0,0 km/h (0 Bft)
22.06.2011 02:00 16,2 C 20,1 C 14,8 C 15,4 C 13,8 C 0,0 C 85 % 90 % 0 % 1013,6 hPa 0,0 l/m 0,0 km/h (0 Bft) N 0,00 h 0,0 UV-I 13,7 C 13,8 C 0,0 km/h (0 Bft)
22.06.2011 03:00 15,5 C 20,1 C 14,3 C 14,7 C 13,1 C 0,0 C 86 % 91 % 0 % 1013,3 hPa 0,0 l/m 0,0 km/h (0 Bft) N 0,00 h 0,0 UV-I 13,2 C 13,1 C 0,0 km/h (0 Bft)
22.06.2011 04:00 15,2 C 20,0 C 13,9 C 14,4 C 12,9 C 0,0 C 87 % 92 % 0 % 1013,2 hPa 0,0 l/m 0,0 km/h (0 Bft) N 0,00 h 0,0 UV-I 13,0 C 12,9 C 0,0 km/h (0 Bft)
22.06.2011 05:00 15,2 C 19,9 C 14,0 C 14,6 C 13,4 C 0,0 C 87 % 92 % 0 % 1013,2 hPa 0,0 l/m 0,0 km/h (0 Bft) N 0,00 h 0,0 UV-I 13,0 C 13,4 C 0,0 km/h (0 Bft)
22.06.2011 06:00 16,0 C 19,7 C 15,0 C 15,7 C 15,3 C 0,0 C 88 % 92 % 0 % 1013,2 hPa 0,0 l/m 0,1 km/h (0 Bft) N 0,00 h 0,0 UV-I 14,0 C 15,3 C 0,1 km/h (0 Bft)
22.06.2011 07:00 16,9 C 19,5 C 16,3 C 17,2 C 17,1 C 0,3 C 88 % 93 % 8 % 1013,1 hPa 0,0 l/m 0,0 km/h (0 Bft) N 0,00 h 0,1 UV-I 15,0 C 17,1 C 0,0 km/h (0 Bft)
22.06.2011 08:00 18,4 C 19,4 C 17,9 C 21,1 C 21,1 C 2,7 C 86 % 90 % 70 % 1013,2 hPa 0,0 l/m 0,5 km/h (0 Bft) S 0,33 h 0,4 UV-I 16,0 C 21,1 C 1,8 km/h (1 Bft)
22.06.2011 09:00 18,6 C 19,6 C 18,2 C 19,1 C 19,1 C 0,5 C 87 % 90 % 14 % 1013,5 hPa 0,0 l/m 1,4 km/h (1 Bft) O-NO 0,00 h 0,5 UV-I 16,3 C 19,1 C 2,6 km/h (1 Bft)
22.06.2011 10:00 19,9 C 19,5 C 19,1 C 23,9 C 23,9 C 4,0 C 84 % 88 % 92 % 1013,0 hPa 0,0 l/m 1,9 km/h (1 Bft) SO 0,77 h 1,8 UV-I 17,0 C 23,9 C 4,1 km/h (1 Bft)
22.06.2011 11:00 21,8 C 19,5 C 20,8 C 28,0 C 28,0 C 6,2 C 75 % 80 % 100 % 1012,6 hPa 0,0 l/m 1,3 km/h (1 Bft) SO 1,00 h 3,2 UV-I 17,2 C 28,0 C 1,8 km/h (1 Bft)
22.06.2011 12:00 23,9 C 19,6 C 22,5 C 30,4 C 30,4 C 6,5 C 68 % 74 % 100 % 1011,9 hPa 0,0 l/m 1,9 km/h (1 Bft) S 1,00 h 4,2 UV-I 17,6 C 30,4 C 2,8 km/h (1 Bft)
22.06.2011 13:00 25,2 C 19,8 C 24,4 C 30,3 C 30,3 C 5,1 C 63 % 68 % 100 % 1011,1 hPa 0,0 l/m 2,9 km/h (1 Bft) S 1,00 h 2,9 UV-I 17,5 C 30,3 C 3,7 km/h (1 Bft)
22.06.2011 14:00 26,5 C 20,0 C 26,4 C 32,3 C 32,3 C 5,7 C 58 % 62 % 100 % 1010,3 hPa 0,0 l/m 2,1 km/h (1 Bft) SW 1,00 h 3,6 UV-I 17,6 C 32,3 C 1,8 km/h (1 Bft)
22.06.2011 15:00 27,9 C 20,3 C 29,1 C 33,4 C 33,4 C 5,5 C 54 % 54 % 100 % 1009,0 hPa 0,0 l/m 2,1 km/h (1 Bft) O-SO 1,00 h 2,6 UV-I 17,7 C 33,4 C 2,6 km/h (1 Bft)
22.06.2011 16:00 27,9 C 20,7 C 27,7 C 32,3 C 32,3 C 4,4 C 54 % 56 % 99 % 1007,8 hPa 0,0 l/m 1,0 km/h (0 Bft) S 1,00 h 1,2 UV-I 17,7 C 32,3 C 1,6 km/h (1 Bft)
22.06.2011 17:00 25,2 C 21,3 C 23,9 C 25,8 C 25,3 C 0,9 C 67 % 73 % 23 % 1006,7 hPa 4,8 l/m 3,6 km/h (1 Bft) S 0,00 h 0,3 UV-I 18,4 C 25,3 C 5,3 km/h (1 Bft)
22.06.2011 18:00 21,6 C 21,8 C 19,1 C 21,3 C 20,4 C 0,1 C 82 % 92 % 3 % 1007,7 hPa 0,7 l/m 10,7 km/h (2 Bft) S 0,00 h 0,3 UV-I 18,4 C 20,4 C 14,0 km/h (3 Bft)
22.06.2011 19:00 21,6 C 21,5 C 19,3 C 21,5 C 21,1 C 0,0 C 78 % 90 % 0 % 1008,4 hPa 0,0 l/m 9,7 km/h (2 Bft) SW 0,00 h 0,1 UV-I 17,6 C 21,1 C 12,8 km/h (3 Bft)
22.06.2011 20:00 20,6 C 21,5 C 18,8 C 20,1 C 19,2 C 0,0 C 77 % 88 % 0 % 1008,4 hPa 0,0 l/m 5,9 km/h (2 Bft) W-SW 0,00 h 0,0 UV-I 16,4 C 19,2 C 6,2 km/h (2 Bft)
22.06.2011 21:00 19,9 C 21,4 C 18,2 C 19,2 C 17,8 C 0,0 C 79 % 87 % 0 % 1008,1 hPa 0,0 l/m 3,1 km/h (1 Bft) SW 0,00 h 0,0 UV-I 16,1 C 17,8 C 4,5 km/h (1 Bft)
22.06.2011 22:00 19,4 C 21,2 C 18,0 C 18,9 C 17,9 C 0,0 C 78 % 85 % 0 % 1009,8 hPa 0,0 l/m 7,4 km/h (2 Bft) S-SW 0,00 h 0,0 UV-I 15,5 C 17,9 C 9,2 km/h (2 Bft)
22.06.2011 23:00 18,8 C 21,0 C 17,4 C 18,2 C 17,2 C 0,0 C 76 % 83 % 0 % 1011,2 hPa 0,0 l/m 6,3 km/h (2 Bft) S 0,00 h 0,0 UV-I 14,4 C 17,2 C 7,9 km/h (2 Bft)
23.06.2011 00:00 18,4 C 20,8 C 17,1 C 18,0 C 17,1 C 0,0 C 75 % 82 % 0 % 1012,3 hPa 0,0 l/m 6,2 km/h (2 Bft) S 0,00 h 0,0 UV-I 13,9 C 17,1 C 11,5 km/h (2 Bft)
23.06.2011 01:00 17,7 C 20,7 C 16,4 C 17,2 C 16,0 C 0,0 C 73 % 79 % 0 % 1012,9 hPa 0,0 l/m 7,3 km/h (2 Bft) SW 0,00 h 0,0 UV-I 12,8 C 16,0 C 7,3 km/h (2 Bft)
23.06.2011 02:00 16,8 C 20,5 C 15,2 C 15,9 C 14,3 C 0,0 C 73 % 81 % 0 % 1013,1 hPa 0,0 l/m 4,0 km/h (1 Bft) W-SW 0,00 h 0,0 UV-I 12,0 C 14,3 C 4,2 km/h (1 Bft)
23.06.2011 03:00 16,3 C 20,3 C 14,7 C 15,6 C 14,2 C 0,0 C 73 % 81 % 0 % 1013,6 hPa 0,0 l/m 2,7 km/h (1 Bft) S-SO 0,00 h 0,0 UV-I 11,4 C 14,2 C 4,0 km/h (1 Bft)
23.06.2011 04:00 15,9 C 20,1 C 14,4 C 15,0 C 13,2 C 0,0 C 74 % 81 % 0 % 1013,8 hPa 0,0 l/m 0,7 km/h (0 Bft) S 0,00 h 0,0 UV-I 11,2 C 13,2 C 0,8 km/h (0 Bft)
23.06.2011 05:00 15,5 C 20,0 C 13,9 C 14,5 C 12,4 C 0,0 C 76 % 83 % 0 % 1014,1 hPa 0,0 l/m 0,8 km/h (0 Bft) N-NO 0,00 h 0,0 UV-I 11,2 C 12,4 C 1,7 km/h (1 Bft)
23.06.2011 06:00 16,5 C 19,8 C 14,3 C 15,6 C 13,9 C 0,0 C 74 % 84 % 0 % 1014,6 hPa 0,0 l/m 2,2 km/h (1 Bft) S 0,00 h 0,0 UV-I 11,8 C 13,9 C 4,6 km/h (1 Bft)
23.06.2011 07:00 17,8 C 19,6 C 15,4 C 21,8 C 21,8 C 4,1 C 70 % 80 % 92 % 1014,6 hPa 0,0 l/m 2,8 km/h (1 Bft) S-SO 0,92 h 0,2 UV-I 12,1 C 21,8 C 5,9 km/h (2 Bft)
23.06.2011 08:00 21,2 C 19,5 C 16,4 C 24,2 C 24,2 C 3,1 C 61 % 78 % 70 % 1014,6 hPa 0,0 l/m 3,0 km/h (1 Bft) S 0,42 h 0,7 UV-I 13,4 C 24,2 C 4,5 km/h (1 Bft)
23.06.2011 09:00 20,4 C 19,5 C 17,5 C 22,9 C 22,9 C 2,5 C 62 % 75 % 67 % 1014,8 hPa 0,0 l/m 3,6 km/h (1 Bft) S 0,25 h 1,0 UV-I 12,9 C 22,9 C 5,3 km/h (1 Bft)
23.06.2011 10:00 20,2 C 19,5 C 18,2 C 23,5 C 23,5 C 3,3 C 62 % 72 % 84 % 1014,7 hPa 0,0 l/m 4,8 km/h (1 Bft) SO 0,58 h 1,9 UV-I 12,7 C 23,5 C 8,4 km/h (2 Bft)
23.06.2011 11:00 21,2 C 19,6 C 19,3 C 24,6 C 24,6 C 3,5 C 57 % 66 % 90 % 1014,5 hPa 0,0 l/m 4,8 km/h (1 Bft) S-SO 0,83 h 2,5 UV-I 12,2 C 24,6 C 8,7 km/h (2 Bft)
23.06.2011 12:00 21,8 C 19,6 C 20,2 C 24,7 C 24,7 C 2,8 C 52 % 60 % 74 % 1014,2 hPa 0,0 l/m 6,3 km/h (2 Bft) S 0,25 h 2,5 UV-I 11,5 C 24,7 C 8,2 km/h (2 Bft)
23.06.2011 13:00 22,2 C 19,7 C 20,8 C 25,2 C 25,2 C 3,0 C 50 % 58 % 78 % 1013,8 hPa 0,0 l/m 5,1 km/h (1 Bft) SO 0,08 h 2,9 UV-I 11,3 C 25,2 C 7,9 km/h (2 Bft)
23.06.2011 14:00 21,6 C 19,9 C 20,3 C 22,6 C 22,5 C 0,9 C 53 % 59 % 25 % 1013,6 hPa 0,0 l/m 7,3 km/h (2 Bft) S-SW 0,08 h 1,2 UV-I 11,6 C 22,5 C 9,1 km/h (2 Bft)
23.06.2011 15:00 22,6 C 19,9 C 22,8 C 25,2 C 25,2 C 2,6 C 52 % 57 % 69 % 1013,3 hPa 0,0 l/m 4,1 km/h (1 Bft) SW 0,10 h 2,1 UV-I 12,3 C 25,2 C 4,9 km/h (1 Bft)
23.06.2011 16:00 22,6 C 20,1 C 21,9 C 24,2 C 24,2 C 1,6 C 54 % 59 % 42 % 1013,0 hPa 0,0 l/m 4,3 km/h (1 Bft) S 0,00 h 1,0 UV-I 12,8 C 24,2 C 5,5 km/h (1 Bft)
23.06.2011 17:00 22,7 C 20,3 C 21,6 C 24,0 C 24,0 C 1,4 C 50 % 57 % 36 % 1012,7 hPa 0,0 l/m 4,7 km/h (1 Bft) S 0,00 h 0,6 UV-I 11,8 C 24,0 C 6,2 km/h (2 Bft)
23.06.2011 18:00 22,1 C 20,4 C 20,8 C 22,4 C 22,3 C 0,2 C 51 % 59 % 6 % 1012,7 hPa 0,0 l/m 4,4 km/h (1 Bft) SW 0,00 h 0,3 UV-I 11,6 C 22,3 C 4,7 km/h (1 Bft)
23.06.2011 19:00 20,8 C 20,4 C 19,3 C 20,4 C 19,5 C 0,0 C 60 % 67 % 1 % 1012,9 hPa 0,0 l/m 2,8 km/h (1 Bft) S-SW 0,00 h 0,1 UV-I 12,7 C 19,5 C 4,2 km/h (1 Bft)
23.06.2011 20:00 19,0 C 20,5 C 16,9 C 18,0 C 16,1 C 0,0 C 71 % 80 % 0 % 1014,2 hPa 0,0 l/m 1,8 km/h (1 Bft) SW 0,00 h 0,0 UV-I 13,5 C 16,1 C 2,5 km/h (1 Bft)
23.06.2011 21:00 17,3 C 20,7 C 15,5 C 16,2 C 13,9 C 0,0 C 73 % 81 % 0 % 1014,9 hPa 0,7 l/m 1,3 km/h (1 Bft) W-SW 0,00 h 0,0 UV-I 12,4 C 13,9 C 1,5 km/h (1 Bft)
23.06.2011 22:00 16,0 C 20,6 C 14,4 C 15,0 C 13,0 C 0,0 C 80 % 86 % 0 % 1015,2 hPa 0,0 l/m 0,0 km/h (0 Bft) N 0,00 h 0,0 UV-I 12,5 C 13,0 C 0,2 km/h (0 Bft)
23.06.2011 23:00 15,1 C 20,5 C 13,7 C 14,1 C 12,0 C 0,0 C 82 % 88 % 0 % 1014,9 hPa 0,0 l/m 0,0 km/h (0 Bft) N 0,00 h 0,0 UV-I 12,0 C 12,0 C 0,1 km/h (0 Bft)
24.06.2011 00:00 14,8 C 20,3 C 13,3 C 13,7 C 11,6 C 0,0 C 81 % 88 % 0 % 1015,0 hPa 0,0 l/m 1,6 km/h (1 Bft) S 0,00 h 0,0 UV-I 11,6 C 11,6 C 3,4 km/h (1 Bft)
24.06.2011 01:00 14,6 C 20,1 C 13,1 C 13,6 C 11,6 C 0,0 C 79 % 86 % 0 % 1015,5 hPa 0,0 l/m 1,3 km/h (1 Bft) SO 0,00 h 0,0 UV-I 11,0 C 11,6 C 2,5 km/h (1 Bft)
24.06.2011 02:00 14,5 C 19,9 C 12,9 C 13,6 C 11,8 C 0,0 C 78 % 85 % 0 % 1015,9 hPa 0,0 l/m 2,4 km/h (1 Bft) S-SW 0,00 h 0,0 UV-I 10,6 C 11,8 C 2,7 km/h (1 Bft)
24.06.2011 03:00 14,2 C 19,8 C 12,7 C 13,5 C 11,9 C 0,0 C 78 % 85 % 0 % 1016,2 hPa 0,0 l/m 1,5 km/h (1 Bft) SW 0,00 h 0,0 UV-I 10,5 C 11,9 C 2,3 km/h (1 Bft)
24.06.2011 04:00 13,7 C 19,7 C 12,6 C 13,0 C 11,7 C 0,0 C 81 % 87 % 0 % 1016,5 hPa 0,0 l/m 0,1 km/h (0 Bft) S-SW 0,00 h 0,0 UV-I 10,5 C 11,7 C 0,7 km/h (0 Bft)
24.06.2011 05:00 14,0 C 19,5 C 12,8 C 13,4 C 12,2 C 0,0 C 80 % 86 % 0 % 1016,9 hPa 0,0 l/m 0,8 km/h (0 Bft) S 0,00 h 0,0 UV-I 10,6 C 12,2 C 1,0 km/h (0 Bft)
24.06.2011 06:00 14,6 C 19,4 C 12,9 C 14,2 C 13,4 C 0,0 C 77 % 86 % 0 % 1017,1 hPa 0,0 l/m 3,4 km/h (1 Bft) S 0,00 h 0,0 UV-I 10,7 C 13,4 C 6,9 km/h (2 Bft)
24.06.2011 07:00 14,9 C 19,2 C 12,9 C 15,0 C 14,9 C 0,2 C 77 % 86 % 5 % 1017,6 hPa 0,0 l/m 4,7 km/h (1 Bft) SW 0,00 h 0,1 UV-I 10,8 C 14,9 C 6,0 km/h (2 Bft)
24.06.2011 08:00 15,0 C 19,1 C 13,8 C 15,0 C 14,9 C 0,0 C 75 % 82 % 1 % 1017,7 hPa 0,0 l/m 5,5 km/h (1 Bft) S 0,00 h 0,3 UV-I 10,6 C 14,9 C 7,0 km/h (2 Bft)
24.06.2011 09:00 15,4 C 19,0 C 13,9 C 15,9 C 15,9 C 0,5 C 71 % 82 % 14 % 1017,9 hPa 0,0 l/m 6,7 km/h (2 Bft) S 0,00 h 0,5 UV-I 10,2 C 15,9 C 7,4 km/h (2 Bft)
24.06.2011 10:00 15,6 C 18,9 C 13,9 C 16,1 C 15,9 C 0,5 C 70 % 82 % 13 % 1017,7 hPa 0,0 l/m 5,0 km/h (1 Bft) S 0,00 h 0,6 UV-I 10,2 C 15,9 C 6,6 km/h (2 Bft)
24.06.2011 11:00 16,7 C 18,9 C 13,9 C 20,4 C 20,3 C 3,7 C 70 % 82 % 74 % 1017,2 hPa 0,0 l/m 2,4 km/h (1 Bft) S 0,58 h 2,4 UV-I 11,3 C 20,3 C 5,5 km/h (1 Bft)
24.06.2011 12:00 16,7 C 18,8 C 14,8 C 18,6 C 18,1 C 2,0 C 68 % 78 % 51 % 1017,1 hPa 0,7 l/m 4,2 km/h (1 Bft) S-SW 0,25 h 1,6 UV-I 10,8 C 18,1 C 5,7 km/h (1 Bft)
24.06.2011 13:00 17,9 C 18,8 C 17,4 C 20,6 C 20,6 C 2,7 C 59 % 63 % 71 % 1017,1 hPa 0,0 l/m 8,4 km/h (2 Bft) S 0,00 h 2,8 UV-I 9,8 C 20,6 C 12,5 km/h (3 Bft)
24.06.2011 14:00 18,6 C 18,9 C 18,4 C 20,1 C 19,8 C 1,6 C 56 % 59 % 41 % 1016,3 hPa 0,0 l/m 9,7 km/h (2 Bft) S 0,00 h 1,9 UV-I 9,6 C 19,8 C 13,2 km/h (3 Bft)
24.06.2011 15:00 19,1 C 19,0 C 20,1 C 20,4 C 20,4 C 1,4 C 53 % 53 % 36 % 1016,6 hPa 0,0 l/m 10,8 km/h (2 Bft) W-SW 0,00 h 2,1 UV-I 9,1 C 20,4 C 14,1 km/h (3 Bft)
24.06.2011 16:00 17,9 C 19,0 C 17,4 C 17,9 C 17,1 C 0,3 C 58 % 61 % 7 % 1017,4 hPa 0,0 l/m 8,3 km/h (2 Bft) W-SW 0,00 h 0,5 UV-I 9,5 C 17,1 C 9,3 km/h (2 Bft)
24.06.2011 17:00 18,0 C 19,1 C 17,1 C 19,7 C 19,5 C 1,8 C 59 % 64 % 37 % 1018,1 hPa 0,0 l/m 0,4 km/h (0 Bft) N 0,33 h 0,2 UV-I 9,9 C 19,5 C 0,8 km/h (0 Bft)
24.06.2011 18:00 17,7 C 19,2 C 16,4 C 18,0 C 17,7 C 0,4 C 59 % 64 % 11 % 1018,5 hPa 0,0 l/m 6,6 km/h (2 Bft) W-SW 0,00 h 0,3 UV-I 9,6 C 17,7 C 10,8 km/h (2 Bft)
24.06.2011 19:00 17,7 C 19,2 C 16,2 C 17,8 C 17,6 C 0,2 C 60 % 66 % 5 % 1019,3 hPa 0,0 l/m 5,2 km/h (1 Bft) W-SW 0,00 h 0,1 UV-I 9,8 C 17,6 C 6,6 km/h (2 Bft)
24.06.2011 20:00 16,1 C 19,4 C 14,2 C 15,3 C 13,7 C 0,0 C 68 % 78 % 0 % 1019,9 hPa 4,8 l/m 2,5 km/h (1 Bft) W-SW 0,00 h 0,0 UV-I 10,2 C 13,7 C 3,2 km/h (1 Bft)
24.06.2011 21:00 13,7 C 19,5 C 11,2 C 12,7 C 10,7 C 0,0 C 80 % 93 % 0 % 1020,9 hPa 3,4 l/m 3,1 km/h (1 Bft) S 0,00 h 0,0 UV-I 10,3 C 10,7 C 4,0 km/h (1 Bft)
24.06.2011 22:00 13,1 C 19,5 C 11,2 C 12,3 C 10,6 C 0,0 C 83 % 94 % 0 % 1021,0 hPa 0,7 l/m 0,2 km/h (0 Bft) N 0,00 h 0,0 UV-I 10,3 C 10,6 C 0,2 km/h (0 Bft)
24.06.2011 23:00 12,6 C 19,3 C 11,0 C 11,8 C 10,3 C 0,0 C 85 % 94 % 0 % 1021,1 hPa 0,0 l/m 0,0 km/h (0 Bft) N 0,00 h 0,0 UV-I 10,0 C 10,3 C 0,0 km/h (0 Bft)
25.06.2011 00:00 12,1 C 19,2 C 10,8 C 11,5 C 10,3 C 0,0 C 86 % 95 % 0 % 1021,5 hPa 0,0 l/m 0,1 km/h (0 Bft) W-SW 0,00 h 0,0 UV-I 9,8 C 10,3 C 0,0 km/h (0 Bft)
25.06.2011 01:00 12,4 C 18,9 C 10,8 C 11,8 C 10,6 C 0,0 C 85 % 95 % 0 % 1021,7 hPa 0,0 l/m 2,5 km/h (1 Bft) W-SW 0,00 h 0,0 UV-I 9,9 C 10,6 C 4,2 km/h (1 Bft)
25.06.2011 02:00 12,3 C 18,8 C 10,8 C 11,7 C 10,4 C 0,0 C 86 % 95 % 0 % 1021,9 hPa 0,0 l/m 2,2 km/h (1 Bft) W-SW 0,00 h 0,0 UV-I 10,0 C 10,4 C 3,1 km/h (1 Bft)
25.06.2011 03:00 12,2 C 18,7 C 10,8 C 11,5 C 10,3 C 0,0 C 86 % 95 % 0 % 1021,9 hPa 0,0 l/m 1,4 km/h (1 Bft) W-SW 0,00 h 0,0 UV-I 9,9 C 10,3 C 1,7 km/h (1 Bft)
25.06.2011 04:00 12,0 C 18,6 C 10,6 C 11,4 C 10,1 C 0,0 C 86 % 95 % 0 % 1021,9 hPa 0,0 l/m 2,2 km/h (1 Bft) SW 0,00 h 0,0 UV-I 9,8 C 10,1 C 4,1 km/h (1 Bft)
25.06.2011 05:00 12,0 C 18,5 C 10,6 C 11,3 C 9,9 C 0,0 C 86 % 95 % 0 % 1022,4 hPa 0,0 l/m 1,1 km/h (0 Bft) W-SW 0,00 h 0,0 UV-I 9,8 C 9,9 C 1,4 km/h (1 Bft)
25.06.2011 06:00 12,6 C 18,2 C 10,5 C 11,8 C 10,3 C 0,0 C 85 % 95 % 0 % 1022,7 hPa 0,0 l/m 2,2 km/h (1 Bft) SW 0,00 h 0,0 UV-I 10,1 C 10,3 C 3,5 km/h (1 Bft)
25.06.2011 07:00 13,3 C 18,0 C 10,9 C 14,0 C 14,0 C 0,8 C 82 % 95 % 20 % 1023,1 hPa 0,0 l/m 3,6 km/h (1 Bft) SW 0,00 h 0,2 UV-I 10,2 C 14,0 C 5,7 km/h (1 Bft)
25.06.2011 08:00 16,4 C 17,8 C 11,4 C 17,9 C 17,9 C 1,6 C 72 % 95 % 42 % 1023,4 hPa 0,0 l/m 4,2 km/h (1 Bft) W-SW 0,15 h 0,6 UV-I 11,3 C 17,9 C 7,3 km/h (2 Bft)
25.06.2011 09:00 16,1 C 17,7 C 12,6 C 19,6 C 19,6 C 3,6 C 67 % 91 % 88 % 1023,4 hPa 0,0 l/m 5,7 km/h (1 Bft) SW 0,92 h 1,3 UV-I 9,8 C 19,6 C 7,6 km/h (2 Bft)
25.06.2011 10:00 15,6 C 17,7 C 13,8 C 18,7 C 18,7 C 3,1 C 64 % 76 % 83 % 1023,8 hPa 0,0 l/m 7,0 km/h (2 Bft) SW 0,50 h 1,6 UV-I 8,7 C 18,7 C 11,0 km/h (2 Bft)
25.06.2011 11:00 16,3 C 17,6 C 15,0 C 19,4 C 19,4 C 3,1 C 58 % 65 % 80 % 1023,8 hPa 0,0 l/m 8,2 km/h (2 Bft) W-SW 0,58 h 2,5 UV-I 8,1 C 19,4 C 11,9 km/h (2 Bft)
25.06.2011 12:00 17,2 C 17,6 C 16,0 C 20,1 C 20,1 C 2,8 C 55 % 62 % 74 % 1023,7 hPa 0,0 l/m 6,7 km/h (2 Bft) W-SW 0,33 h 2,0 UV-I 8,2 C 20,1 C 8,4 km/h (2 Bft)
25.06.2011 13:00 18,1 C 17,7 C 17,2 C 21,2 C 21,2 C 3,1 C 54 % 59 % 81 % 1023,6 hPa 0,0 l/m 6,7 km/h (2 Bft) W-SW 0,50 h 2,7 UV-I 8,6 C 21,2 C 8,9 km/h (2 Bft)
25.06.2011 14:00 17,8 C 17,7 C 16,9 C 19,6 C 19,6 C 1,8 C 55 % 60 % 47 % 1023,5 hPa 0,0 l/m 4,3 km/h (1 Bft) W-SW 0,00 h 1,2 UV-I 8,7 C 19,6 C 5,8 km/h (2 Bft)
25.06.2011 15:00 18,0 C 17,8 C 17,6 C 19,7 C 19,7 C 1,7 C 55 % 59 % 44 % 1023,1 hPa 0,0 l/m 4,4 km/h (1 Bft) W-SW 0,25 h 0,6 UV-I 8,8 C 19,7 C 5,7 km/h (1 Bft)
25.06.2011 16:00 17,2 C 17,8 C 16,3 C 17,3 C 17,2 C 0,1 C 58 % 64 % 3 % 1023,0 hPa 0,0 l/m 6,4 km/h (2 Bft) W-SW 0,00 h 0,3 UV-I 9,0 C 17,2 C 7,9 km/h (2 Bft)
25.06.2011 17:00 16,9 C 17,9 C 16,0 C 17,1 C 17,1 C 0,2 C 61 % 67 % 5 % 1023,1 hPa 0,0 l/m 5,7 km/h (1 Bft) W-SW 0,00 h 0,3 UV-I 9,3 C 17,1 C 7,6 km/h (2 Bft)
25.06.2011 18:00 16,8 C 18,0 C 15,9 C 17,3 C 17,3 C 0,5 C 61 % 67 % 14 % 1022,7 hPa 0,0 l/m 6,7 km/h (2 Bft) S 0,00 h 0,3 UV-I 9,3 C 17,3 C 8,3 km/h (2 Bft)
25.06.2011 19:00 16,1 C 18,0 C 15,1 C 15,9 C 15,5 C 0,0 C 65 % 71 % 0 % 1022,9 hPa 0,0 l/m 5,8 km/h (2 Bft) W-SW 0,00 h 0,0 UV-I 9,5 C 15,5 C 7,4 km/h (2 Bft)
25.06.2011 20:00 15,5 C 18,0 C 14,5 C 15,1 C 14,3 C 0,0 C 71 % 77 % 0 % 1022,8 hPa 0,0 l/m 2,3 km/h (1 Bft) W-SW 0,00 h 0,0 UV-I 10,3 C 14,3 C 3,5 km/h (1 Bft)
25.06.2011 21:00 14,8 C 18,1 C 13,8 C 14,4 C 13,6 C 0,0 C 75 % 81 % 0 % 1023,0 hPa 0,0 l/m 5,2 km/h (1 Bft) W-SW 0,00 h 0,0 UV-I 10,5 C 13,6 C 6,6 km/h (2 Bft)
25.06.2011 22:00 14,4 C 18,1 C 13,4 C 14,0 C 13,0 C 0,0 C 78 % 84 % 0 % 1022,9 hPa 0,0 l/m 2,6 km/h (1 Bft) W-SW 0,00 h 0,0 UV-I 10,7 C 13,0 C 3,6 km/h (1 Bft)
25.06.2011 23:00 14,0 C 18,5 C 13,0 C 13,4 C 12,2 C 0,0 C 83 % 88 % 0 % 1022,8 hPa 1,4 l/m 0,6 km/h (0 Bft) N 0,00 h 0,0 UV-I 11,1 C 12,2 C 0,3 km/h (0 Bft)
26.06.2011 00:00 13,5 C 18,5 C 12,7 C 13,0 C 12,2 C 0,0 C 86 % 93 % 0 % 1022,3 hPa 0,0 l/m 0,0 km/h (0 Bft) N 0,00 h 0,0 UV-I 11,2 C 12,2 C 0,4 km/h (0 Bft)
26.06.2011 01:00 13,4 C 18,5 C 12,5 C 13,0 C 12,2 C 0,0 C 88 % 94 % 0 % 1021,9 hPa 0,0 l/m 0,3 km/h (0 Bft) N 0,00 h 0,0 UV-I 11,4 C 12,2 C 1,0 km/h (0 Bft)
26.06.2011 02:00 13,5 C 18,4 C 12,7 C 13,2 C 12,5 C 0,0 C 88 % 94 % 0 % 1021,2 hPa 0,0 l/m 1,0 km/h (0 Bft) W-SW 0,00 h 0,0 UV-I 11,4 C 12,5 C 2,3 km/h (1 Bft)
26.06.2011 03:00 13,5 C 18,4 C 12,7 C 13,2 C 12,7 C 0,0 C 88 % 95 % 0 % 1021,0 hPa 0,7 l/m 3,0 km/h (1 Bft) W-SW 0,00 h 0,0 UV-I 11,6 C 12,7 C 4,6 km/h (1 Bft)
26.06.2011 04:00 13,6 C 18,4 C 12,9 C 13,4 C 12,9 C 0,0 C 89 % 95 % 0 % 1020,8 hPa 0,0 l/m 4,0 km/h (1 Bft) SW 0,00 h 0,0 UV-I 11,8 C 12,9 C 6,5 km/h (2 Bft)
26.06.2011 05:00 13,7 C 18,4 C 13,1 C 13,5 C 13,1 C 0,0 C 90 % 95 % 0 % 1020,6 hPa 0,0 l/m 3,1 km/h (1 Bft) SW 0,00 h 0,0 UV-I 12,0 C 13,1 C 3,9 km/h (1 Bft)
26.06.2011 06:00 13,9 C 18,4 C 13,3 C 13,7 C 13,5 C 0,0 C 90 % 95 % 0 % 1020,6 hPa 0,7 l/m 3,4 km/h (1 Bft) SW 0,00 h 0,0 UV-I 12,3 C 13,5 C 3,7 km/h (1 Bft)
26.06.2011 07:00 14,2 C 18,3 C 13,7 C 14,2 C 14,1 C 0,0 C 91 % 95 % 0 % 1020,8 hPa 0,7 l/m 4,0 km/h (1 Bft) W-SW 0,00 h 0,1 UV-I 12,7 C 14,1 C 5,5 km/h (1 Bft)
26.06.2011 08:00 14,7 C 18,2 C 14,3 C 15,2 C 15,2 C 0,5 C 91 % 95 % 12 % 1021,0 hPa 0,0 l/m 4,8 km/h (1 Bft) W-SW 0,00 h 0,2 UV-I 13,3 C 15,2 C 6,1 km/h (2 Bft)
26.06.2011 09:00 15,5 C 18,1 C 15,1 C 17,3 C 17,3 C 1,8 C 91 % 95 % 46 % 1021,1 hPa 0,0 l/m 5,0 km/h (1 Bft) W-SW 0,00 h 0,8 UV-I 14,0 C 17,3 C 6,1 km/h (2 Bft)
26.06.2011 10:00 16,6 C 18,0 C 16,0 C 19,2 C 19,2 C 2,6 C 88 % 94 % 69 % 1021,2 hPa 0,0 l/m 5,0 km/h (1 Bft) W-SW 0,08 h 1,3 UV-I 14,6 C 19,2 C 8,6 km/h (2 Bft)
26.06.2011 11:00 17,5 C 18,1 C 17,0 C 20,8 C 20,8 C 3,2 C 84 % 91 % 85 % 1021,3 hPa 0,0 l/m 5,2 km/h (1 Bft) W 0,42 h 1,4 UV-I 14,7 C 20,8 C 7,1 km/h (2 Bft)
26.06.2011 12:00 17,6 C 18,3 C 17,1 C 19,2 C 19,2 C 1,6 C 84 % 91 % 43 % 1021,6 hPa 0,0 l/m 1,9 km/h (1 Bft) SW 0,00 h 0,9 UV-I 14,8 C 19,2 C 2,4 km/h (1 Bft)
26.06.2011 13:00 18,8 C 18,3 C 18,6 C 23,0 C 23,0 C 4,2 C 80 % 87 % 97 % 1021,5 hPa 0,0 l/m 4,0 km/h (1 Bft) W-SW 0,92 h 3,1 UV-I 15,3 C 23,0 C 6,1 km/h (2 Bft)
26.06.2011 14:00 20,1 C 18,4 C 20,3 C 24,5 C 24,5 C 4,3 C 71 % 74 % 98 % 1021,7 hPa 0,0 l/m 4,8 km/h (1 Bft) SW 1,00 h 1,9 UV-I 14,8 C 24,5 C 5,9 km/h (2 Bft)
26.06.2011 15:00 20,9 C 18,6 C 21,2 C 24,9 C 24,9 C 4,0 C 70 % 71 % 99 % 1021,3 hPa 0,0 l/m 4,0 km/h (1 Bft) S-SW 1,00 h 1,6 UV-I 15,2 C 24,9 C 5,1 km/h (1 Bft)
26.06.2011 16:00 21,8 C 18,8 C 22,1 C 25,9 C 25,9 C 4,1 C 67 % 68 % 93 % 1021,2 hPa 0,0 l/m 5,1 km/h (1 Bft) W-SW 0,67 h 1,5 UV-I 15,4 C 25,9 C 7,3 km/h (2 Bft)
26.06.2011 17:00 21,7 C 19,0 C 21,5 C 23,9 C 23,9 C 2,2 C 67 % 70 % 58 % 1021,1 hPa 0,0 l/m 4,2 km/h (1 Bft) W-SW 0,00 h 0,6 UV-I 15,3 C 23,9 C 5,0 km/h (1 Bft)
26.06.2011 18:00 22,5 C 19,1 C 22,1 C 25,3 C 25,3 C 2,8 C 66 % 69 % 74 % 1021,1 hPa 0,0 l/m 4,6 km/h (1 Bft) SW 0,33 h 0,4 UV-I 15,9 C 25,3 C 6,8 km/h (2 Bft)
26.06.2011 19:00 22,9 C 19,3 C 21,8 C 24,6 C 24,6 C 1,7 C 64 % 69 % 46 % 1021,0 hPa 0,0 l/m 2,3 km/h (1 Bft) S-SW 0,00 h 0,1 UV-I 15,6 C 24,6 C 3,3 km/h (1 Bft)
26.06.2011 20:00 22,5 C 19,4 C 20,8 C 22,4 C 21,7 C 0,2 C 67 % 74 % 6 % 1020,7 hPa 0,0 l/m 1,2 km/h (1 Bft) W-SW 0,00 h 0,0 UV-I 16,0 C 21,7 C 1,2 km/h (1 Bft)
26.06.2011 21:00 20,4 C 19,6 C 18,6 C 19,4 C 17,6 C 0,0 C 76 % 83 % 0 % 1021,3 hPa 0,0 l/m 0,0 km/h (0 Bft) N 0,00 h 0,0 UV-I 16,0 C 17,6 C 0,0 km/h (0 Bft)
26.06.2011 22:00 18,5 C 19,9 C 16,9 C 17,5 C 15,4 C 0,0 C 81 % 88 % 0 % 1021,5 hPa 0,0 l/m 0,0 km/h (0 Bft) N 0,00 h 0,0 UV-I 15,2 C 15,4 C 0,0 km/h (0 Bft)
26.06.2011 23:00 17,2 C 19,9 C 15,7 C 16,2 C 14,3 C 0,0 C 83 % 89 % 0 % 1021,4 hPa 0,0 l/m 0,0 km/h (0 Bft) N 0,00 h 0,0 UV-I 14,3 C 14,3 C 0,0 km/h (0 Bft)
Min-Datum _ 25.06.11 25.06.11 25.06.11 25.06.11 25.06.11 20.06.11 20.06.11 20.06.11 20.06.11 22.06.11 - 20.06.11 - - 20.06.11 25.06.11 25.06.11 20.06.11
_ Min-Zeit 00:15 10:10 06:30 05:09 05:09 00:00 15:25 15:25 00:00 17:30 - 23:00 - - 00:00 12:15 05:09 18:40
Minimum _ 11,9 C 17,6 C 10,4 C 11,2 C 9,7 C 0,0 C 47 % 45 % 0 % 1006,4 hPa - 0,0 km/h (0 Bft) - - 0,0 UV-I 7,7 C 9,7 C 0,0 km/h (0 Bft)
Max-Datum _ 22.06.11 22.06.11 22.06.11 22.06.11 22.06.11 22.06.11 26.06.11 21.06.11 20.06.11 25.06.11 24.06.11 24.06.11 - 22.06.11 26.06.11 22.06.11 22.06.11 20.06.11
_ Max-Zeit 15:40 17:58 15:40 15:45 15:45 11:50 06:40 11:15 09:40 10:30 20:55 15:40 - 13:10 13:50 18:50 15:45 09:15
Maximum _ 28,4 C 21,8 C 30,1 C 34,3 C 34,3 C 7,2 C 91 % 95 % 100 % 1023,9 hPa 4,8 l/m 13,4 km/h
W-SW (3 Bft)
- 0,17 h 4,7 UV-I 19,1 C 34,3 C 29,8 km/h
S (5 Bft)
Durchschnitt _ 17,3 C 19,2 C 16,2 C 18,1 C 17,5 C 1,1 C 74 % 81 % 27 % 1016,2 hPa #22,7 l/m 3,6 km/h (1 Bft) SW #22:39 h 1,2 UV-I 12,4 C 17,5 C 5,0 km/h (1 Bft)
2013 www.wetterstation-wechselburg.de